createdAt,value
2019-04-21T00:00:37.385Z,102732.10
2019-04-21T00:03:15.175Z,102729.36
2019-04-21T00:05:58.883Z,102727.98
2019-04-21T00:08:33.600Z,102724.39
2019-04-21T00:11:02.740Z,102721.13
2019-04-21T00:13:25.439Z,102720.60
2019-04-21T00:15:48.807Z,102712.05
2019-04-21T00:18:44.646Z,102715.28
2019-04-21T00:21:15.778Z,102710.51
2019-04-21T00:23:57.376Z,102713.74
2019-04-21T00:26:32.077Z,102710.51
2019-04-21T00:29:03.890Z,102709.30
2019-04-21T00:31:28.637Z,102710.67
2019-04-21T00:33:44.738Z,102707.41
2019-04-21T00:36:20.219Z,102710.15
2019-04-21T00:39:15.773Z,102712.89
2019-04-21T00:41:38.106Z,102706.03
2019-04-21T00:43:59.832Z,102709.30
2019-04-21T00:46:30.750Z,102703.28
2019-04-21T00:49:03.075Z,102704.14
2019-04-21T00:51:49.718Z,102704.14
2019-04-21T00:54:21.278Z,102710.51
2019-04-21T00:56:41.342Z,102706.75
2019-04-21T00:59:13.975Z,102701.39
2019-04-21T01:01:46.176Z,102698.16
2019-04-21T01:04:15.603Z,102693.32
2019-04-21T01:06:50.639Z,102698.16
2019-04-21T01:09:13.820Z,102691.79
2019-04-21T01:11:49.256Z,102679.44
2019-04-21T01:14:21.962Z,102687.18
2019-04-21T01:16:51.495Z,102680.48
2019-04-21T01:19:16.721Z,102684.44
2019-04-21T01:21:29.499Z,102686.82
2019-04-21T01:24:08.199Z,102682.19
2019-04-21T01:26:41.469Z,102679.96
2019-04-21T01:29:15.508Z,102681.33
2019-04-21T01:31:48.036Z,102677.22
2019-04-21T01:34:23.304Z,102670.36
2019-04-21T01:36:53.011Z,102675.84
2019-04-21T01:39:27.488Z,102674.47
2019-04-21T01:41:59.129Z,102676.37
2019-04-21T01:44:30.097Z,102670.36
2019-04-21T01:46:51.893Z,102672.25
2019-04-21T01:49:19.204Z,102664.02
2019-04-21T01:52:15.513Z,102658.53
2019-04-21T01:54:48.226Z,102658.17
2019-04-21T01:57:23.116Z,102655.95
2019-04-21T01:59:54.280Z,102664.19
2019-04-21T02:02:32.537Z,102656.96
2019-04-21T02:05:03.112Z,102654.74
2019-04-21T02:07:37.946Z,102661.08
2019-04-21T02:10:04.827Z,102657.97
2019-04-21T02:12:31.807Z,102660.23
2019-04-21T02:15:11.338Z,102657.13
2019-04-21T02:17:34.258Z,102653.86
2019-04-21T02:20:00.085Z,102656.59
2019-04-21T02:22:46.147Z,102660.72
2019-04-21T02:25:18.213Z,102657.97
2019-04-21T02:27:36.297Z,102659.34
2019-04-21T02:30:21.857Z,102650.27
2019-04-21T02:35:38.449Z,102647.52
2019-04-21T02:40:21.561Z,102636.55
2019-04-21T02:43:00.226Z,102638.44
2019-04-21T02:45:23.507Z,102638.44
2019-04-21T02:48:08.852Z,102643.05
2019-04-21T02:50:25.941Z,102644.42
2019-04-21T02:52:53.304Z,102636.70
2019-04-21T02:55:25.574Z,102634.98
2019-04-21T02:58:09.743Z,102631.38
2019-04-21T03:03:29.791Z,102628.11
2019-04-21T03:06:10.387Z,102622.63
2019-04-21T03:11:12.293Z,102614.56
2019-04-21T03:23:57.546Z,102613.35
2019-04-21T03:28:53.609Z,102603.75
2019-04-21T03:31:42.998Z,102602.02
2019-04-21T03:34:28.977Z,102595.67
2019-04-21T03:36:43.783Z,102587.97
2019-04-21T03:38:47.294Z,102590.72
2019-04-21T03:41:18.849Z,102592.58
2019-04-21T03:43:52.514Z,102585.72
2019-04-21T03:53:53.928Z,102581.28
2019-04-21T03:56:52.422Z,102576.80
2019-04-21T03:59:01.948Z,102575.43
2019-04-21T04:01:32.424Z,102576.28
2019-04-21T04:07:11.085Z,102581.08
2019-04-21T04:09:44.438Z,102579.19
2019-04-21T04:12:19.394Z,102579.71
2019-04-21T04:14:46.232Z,102577.45
2019-04-21T04:27:35.317Z,102570.44
2019-04-21T04:30:08.388Z,102565.44
2019-04-21T04:43:07.493Z,102555.51
2019-04-21T04:45:23.742Z,102551.53
2019-04-21T04:47:50.020Z,102555.28
2019-04-21T04:50:22.553Z,102550.64
2019-04-21T04:52:49.051Z,102548.06
2019-04-21T04:55:26.195Z,102549.44
2019-04-21T04:57:59.321Z,102549.80
2019-04-21T05:00:32.347Z,102551.03
2019-04-21T05:05:44.506Z,102542.41
2019-04-21T05:07:57.742Z,102535.95
2019-04-21T05:12:50.734Z,102535.95
2019-04-21T05:15:23.928Z,102529.94
2019-04-21T05:17:59.187Z,102534.94
2019-04-21T05:20:49.238Z,102525.34
2019-04-21T05:22:53.126Z,102527.55
2019-04-21T05:25:18.515Z,102520.70
2019-04-21T05:27:46.929Z,102523.97
2019-04-21T05:30:58.506Z,102516.06
2019-04-21T05:33:39.909Z,102518.31
2019-04-21T05:36:15.690Z,102516.42
2019-04-21T05:39:01.321Z,102516.94
2019-04-21T05:41:22.111Z,102519.16
2019-04-21T05:44:03.776Z,102511.95
2019-04-21T05:46:42.772Z,102506.98
2019-04-21T05:49:09.265Z,102509.73
2019-04-21T05:51:55.615Z,102507.83
2019-04-21T05:54:40.385Z,102506.46
2019-04-21T05:57:04.061Z,102502.70
2019-04-21T05:59:33.973Z,102508.19
2019-04-21T06:02:13.957Z,102499.11
2019-04-21T06:05:02.710Z,102497.38
2019-04-21T06:07:13.968Z,102499.89
2019-04-21T06:09:43.928Z,102502.28
2019-04-21T06:12:08.748Z,102498.33
2019-04-21T06:14:43.977Z,102491.09
2019-04-21T06:17:21.863Z,102491.13
2019-04-21T06:19:50.307Z,102494.72
2019-04-21T06:22:13.879Z,102487.39
2019-04-21T06:24:57.039Z,102482.92
2019-04-21T06:27:22.720Z,102481.34
2019-04-21T06:29:49.274Z,102487.60
2019-04-21T06:32:30.391Z,102479.50
2019-04-21T06:35:07.328Z,102484.61
2019-04-21T06:40:15.423Z,102480.22
2019-04-21T06:42:28.408Z,102482.86
2019-04-21T06:47:39.451Z,102479.15
2019-04-21T06:50:01.619Z,102477.26
2019-04-21T06:52:46.591Z,102473.77
2019-04-21T06:57:35.760Z,102472.91
2019-04-21T07:00:04.193Z,102472.99
2019-04-21T07:02:43.765Z,102468.10
2019-04-21T07:05:07.862Z,102462.53
2019-04-21T07:07:36.210Z,102464.27
2019-04-21T07:10:10.756Z,102459.73
2019-04-21T07:12:33.670Z,102455.62
2019-04-21T07:15:14.776Z,102455.52
2019-04-21T07:17:40.314Z,102459.98
2019-04-21T07:20:12.870Z,102462.52
2019-04-21T07:22:41.626Z,102458.88
2019-04-21T07:25:16.579Z,102458.73
2019-04-21T07:27:50.668Z,102455.89
2019-04-21T07:30:22.796Z,102459.04
2019-04-21T07:32:47.527Z,102460.09
2019-04-21T07:35:14.500Z,102460.86
2019-04-21T07:37:48.101Z,102449.81
2019-04-21T07:40:14.594Z,102449.12
2019-04-21T07:42:45.330Z,102449.97
2019-04-21T07:45:11.939Z,102450.00
2019-04-21T07:47:59.238Z,102449.67
2019-04-21T07:50:32.703Z,102441.26
2019-04-21T07:53:14.456Z,102441.55
2019-04-21T07:58:13.033Z,102437.50
2019-04-21T08:00:52.637Z,102437.87
2019-04-21T08:03:15.915Z,102435.98
2019-04-21T08:05:45.836Z,102439.29
2019-04-21T08:08:01.587Z,102434.77
2019-04-21T08:10:40.576Z,102435.84
2019-04-21T08:13:26.550Z,102429.97
2019-04-21T08:15:44.135Z,102425.66
2019-04-21T08:38:30.239Z,102424.56
2019-04-21T08:41:03.180Z,102424.33
2019-04-21T08:43:36.959Z,102425.16
2019-04-21T08:45:58.947Z,102424.31
2019-04-21T08:48:29.025Z,102421.39
2019-04-21T08:51:18.498Z,102417.50
2019-04-21T08:53:33.997Z,102416.41
2019-04-21T08:56:21.351Z,102414.64
2019-04-21T08:59:15.158Z,102409.59
2019-04-21T09:01:55.752Z,102411.41
2019-04-21T09:04:23.420Z,102412.32
2019-04-21T09:09:29.116Z,102411.12
2019-04-21T09:12:01.611Z,102402.61
2019-04-21T09:14:30.513Z,102400.02
2019-04-21T09:16:56.328Z,102402.45
2019-04-21T09:19:38.518Z,102403.00
2019-04-21T09:22:00.604Z,102400.34
2019-04-21T09:24:33.302Z,102397.61
2019-04-21T09:27:07.110Z,102392.69
2019-04-21T09:29:26.507Z,102384.31
2019-04-21T09:31:48.134Z,102387.39
2019-04-21T09:34:24.862Z,102387.71
2019-04-21T09:36:52.126Z,102392.58
2019-04-21T09:39:22.266Z,102388.38
2019-04-21T09:41:53.651Z,102383.70
2019-04-21T09:44:27.560Z,102379.72
2019-04-21T09:46:54.844Z,102376.13
2019-04-21T09:49:25.980Z,102376.53
2019-04-21T09:51:53.308Z,102371.91
2019-04-21T09:54:27.787Z,102365.74
2019-04-21T09:56:58.580Z,102361.84
2019-04-21T09:59:31.353Z,102370.05
2019-04-21T10:02:06.422Z,102359.86
2019-04-21T10:04:26.701Z,102357.41
2019-04-21T10:06:56.322Z,102352.91
2019-04-21T10:09:26.387Z,102350.40
2019-04-21T10:11:56.920Z,102339.47
2019-04-21T10:14:26.490Z,102341.87
2019-04-21T10:17:13.392Z,102338.91
2019-04-21T10:19:42.421Z,102335.89
2019-04-21T10:22:12.650Z,102333.37
2019-04-21T10:24:42.463Z,102327.80
2019-04-21T10:27:13.327Z,102319.69
2019-04-21T10:29:43.537Z,102318.28
2019-04-21T10:32:15.335Z,102318.77
2019-04-21T10:34:45.273Z,102315.72
2019-04-21T10:37:14.422Z,102308.67
2019-04-21T10:39:43.457Z,102310.55
2019-04-21T10:42:13.170Z,102305.09
2019-04-21T10:44:43.159Z,102304.75
2019-04-21T10:47:13.081Z,102300.09
2019-04-21T10:49:44.581Z,102296.83
2019-04-21T10:52:19.411Z,102300.43
2019-04-21T10:55:11.224Z,102293.27
2019-04-21T10:57:24.276Z,102291.17
2019-04-21T10:59:55.906Z,102278.02
2019-04-21T11:02:36.861Z,102278.03
2019-04-21T11:05:06.911Z,102283.12
2019-04-21T11:08:04.870Z,102284.51
2019-04-21T11:10:20.367Z,102281.06
2019-04-21T11:12:50.757Z,102276.08
2019-04-21T11:15:21.189Z,102282.10
2019-04-21T11:17:50.674Z,102276.22
2019-04-21T11:20:19.924Z,102270.59
2019-04-21T11:22:49.383Z,102261.83
2019-04-21T11:25:19.784Z,102267.77
2019-04-21T11:27:49.157Z,102267.84
2019-04-21T11:30:18.169Z,102260.47
2019-04-21T11:32:49.097Z,102253.27
2019-04-21T11:35:19.193Z,102248.44
2019-04-21T11:37:48.409Z,102252.55
2019-04-21T11:40:19.797Z,102250.69
2019-04-21T11:42:48.813Z,102247.59
2019-04-21T11:45:28.718Z,102247.09
2019-04-21T11:48:30.286Z,102239.35
2019-04-21T11:50:59.522Z,102240.23
2019-04-21T11:53:28.879Z,102238.69
2019-04-21T11:55:58.746Z,102238.20
2019-04-21T11:58:28.253Z,102239.20
2019-04-21T12:01:00.118Z,102233.73
2019-04-21T12:03:29.592Z,102229.60
2019-04-21T12:05:59.577Z,102230.47
2019-04-21T12:08:37.689Z,102221.20
2019-04-21T12:10:59.782Z,102225.31
2019-04-21T12:13:30.048Z,102220.52
2019-04-21T12:16:00.941Z,102216.56
2019-04-21T12:18:32.051Z,102214.69
2019-04-21T12:21:01.264Z,102210.23
2019-04-21T12:23:30.402Z,102206.81
2019-04-21T12:25:59.480Z,102202.15
2019-04-21T12:28:30.100Z,102198.70
2019-04-21T12:31:00.137Z,102197.01
2019-04-21T12:33:47.733Z,102186.37
2019-04-21T12:36:17.898Z,102184.33
2019-04-21T12:38:53.952Z,102179.88
2019-04-21T12:41:18.360Z,102180.54
2019-04-21T12:43:48.595Z,102181.38
2019-04-21T12:46:18.282Z,102173.27
2019-04-21T12:48:47.276Z,102176.02
2019-04-21T12:51:17.554Z,102167.10
2019-04-21T12:53:47.788Z,102162.63
2019-04-21T12:56:17.739Z,102153.00
2019-04-21T12:58:47.170Z,102158.52
2019-04-21T13:01:16.738Z,102164.68
2019-04-21T13:03:45.966Z,102153.03
2019-04-21T13:06:15.900Z,102147.71
2019-04-21T13:08:53.588Z,102139.95
2019-04-21T13:11:17.028Z,102139.82
2019-04-21T13:13:46.153Z,102135.17
2019-04-21T13:16:15.661Z,102134.80
2019-04-21T13:18:44.992Z,102135.16
2019-04-21T13:21:14.226Z,102131.34
2019-04-21T13:23:43.249Z,102132.95
2019-04-21T13:26:13.045Z,102127.22
2019-04-21T13:28:42.559Z,102123.17
2019-04-21T13:31:12.030Z,102118.16
2019-04-21T13:33:42.009Z,102114.23
2019-04-21T13:36:11.779Z,102111.84
2019-04-21T13:39:32.802Z,102115.42
2019-04-21T13:41:42.893Z,102105.80
2019-04-21T13:44:16.356Z,102099.19
2019-04-21T13:46:47.218Z,102098.17
2019-04-21T13:49:17.255Z,102095.27
2019-04-21T13:51:47.845Z,102088.75
2019-04-21T13:54:18.003Z,102085.66
2019-04-21T13:56:47.341Z,102086.38
2019-04-21T13:59:16.389Z,102078.67
2019-04-21T14:01:45.752Z,102073.67
2019-04-21T14:04:15.916Z,102072.48
2019-04-21T14:06:45.084Z,102081.02
2019-04-21T14:09:15.596Z,102070.75
2019-04-21T14:11:45.280Z,102067.64
2019-04-21T14:14:14.507Z,102074.86
2019-04-21T14:16:44.159Z,102071.47
2019-04-21T14:19:15.320Z,102063.88
2019-04-21T14:21:48.189Z,102059.94
2019-04-21T14:24:17.058Z,102060.12
2019-04-21T14:26:46.332Z,102062.03
2019-04-21T14:29:15.624Z,102053.42
2019-04-21T14:31:44.623Z,102057.03
2019-04-21T14:34:14.343Z,102066.02
2019-04-21T14:36:44.530Z,102051.41
2019-04-21T14:39:14.602Z,102046.60
2019-04-21T14:41:44.272Z,102038.05
2019-04-21T14:44:15.143Z,102039.42
2019-04-21T14:47:11.549Z,102029.81
2019-04-21T14:49:49.111Z,102034.95
2019-04-21T14:52:30.838Z,102031.38
2019-04-21T14:55:16.691Z,102041.47
2019-04-21T14:57:47.294Z,102036.33
2019-04-21T15:00:18.973Z,102035.84
2019-04-21T15:02:48.069Z,102030.37
2019-04-21T15:05:17.609Z,102034.77
2019-04-21T15:07:46.694Z,102029.83
2019-04-21T15:10:20.635Z,102020.94
2019-04-21T15:12:47.775Z,102023.69
2019-04-21T15:15:18.057Z,102021.11
2019-04-21T15:17:47.141Z,102021.25
2019-04-21T15:20:17.792Z,102018.19
2019-04-21T15:22:48.266Z,102019.41
2019-04-21T15:25:18.357Z,102008.08
2019-04-21T15:27:48.692Z,102009.80
2019-04-21T15:30:18.682Z,102003.80
2019-04-21T15:32:48.517Z,102004.47
2019-04-21T15:35:17.522Z,102001.23
2019-04-21T15:37:46.559Z,102003.83
2019-04-21T15:40:25.142Z,101996.80
2019-04-21T15:42:48.367Z,101999.52
2019-04-21T15:45:18.752Z,102002.44
2019-04-21T15:47:48.147Z,101989.95
2019-04-21T15:50:19.501Z,101996.45
2019-04-21T15:52:49.712Z,101993.35
2019-04-21T15:55:39.004Z,101986.86
2019-04-21T15:58:30.449Z,101986.50
2019-04-21T16:01:04.804Z,101985.13
2019-04-21T16:03:34.470Z,101986.50
2019-04-21T16:06:03.656Z,101984.47
2019-04-21T16:08:33.332Z,101990.48
2019-04-21T16:11:04.542Z,101986.69
2019-04-21T16:13:34.102Z,101982.26
2019-04-21T16:16:04.292Z,101979.52
2019-04-21T16:18:34.238Z,101983.13
2019-04-21T16:21:04.243Z,101973.53
2019-04-21T16:23:33.489Z,101976.27
2019-04-21T16:26:04.380Z,101975.08
2019-04-21T16:28:33.574Z,101976.94
2019-04-21T16:31:02.630Z,101975.08
2019-04-21T16:33:31.694Z,101970.97
2019-04-21T16:36:01.984Z,101963.44
2019-04-21T16:38:31.557Z,101969.77
2019-04-21T16:41:04.727Z,101961.02
2019-04-21T16:43:31.377Z,101962.91
2019-04-21T16:46:01.302Z,101961.37
2019-04-21T16:48:30.907Z,101958.47
2019-04-21T16:51:01.536Z,101956.23
2019-04-21T16:53:37.729Z,101955.37
2019-04-21T16:56:22.795Z,101957.02
2019-04-21T16:58:56.735Z,101957.73
2019-04-21T17:01:29.745Z,101957.34
2019-04-21T17:04:00.202Z,101955.80
2019-04-21T17:06:29.340Z,101953.39
2019-04-21T17:08:59.088Z,101950.12
2019-04-21T17:11:31.650Z,101954.56
2019-04-21T17:14:00.482Z,101950.10
2019-04-21T17:17:00.295Z,101945.64
2019-04-21T17:19:11.382Z,101943.75
2019-04-21T17:21:32.129Z,101939.48
2019-04-21T17:24:02.129Z,101940.83
2019-04-21T17:26:34.518Z,101941.84
2019-04-21T17:29:02.697Z,101935.31
2019-04-21T17:31:31.840Z,101934.95
2019-04-21T17:34:09.501Z,101930.61
2019-04-21T17:36:32.873Z,101932.83
2019-04-21T17:39:02.404Z,101929.05
2019-04-21T17:41:40.958Z,101939.92
2019-04-21T17:44:02.546Z,101931.69
2019-04-21T17:46:40.797Z,101927.50
2019-04-21T17:49:03.138Z,101924.64
2019-04-21T17:51:55.627Z,101926.98
2019-04-21T17:54:33.813Z,101928.42
2019-04-21T17:57:21.745Z,101925.69
2019-04-21T17:59:58.421Z,101920.77
2019-04-21T18:02:21.280Z,101929.16
2019-04-21T18:04:49.189Z,101925.31
2019-04-21T18:07:26.314Z,101925.92
2019-04-21T18:10:00.117Z,101919.38
2019-04-21T18:12:26.608Z,101917.92
2019-04-21T18:14:53.044Z,101922.16
2019-04-21T18:17:14.166Z,101925.80
2019-04-21T18:19:47.130Z,101925.67
2019-04-21T18:22:41.686Z,101927.77
2019-04-21T18:25:24.243Z,101925.22
2019-04-21T18:27:41.099Z,101925.73
2019-04-21T18:30:56.573Z,101926.77
2019-04-21T18:33:31.761Z,101933.29
2019-04-21T18:36:25.019Z,101935.22
2019-04-21T18:39:12.189Z,101932.00
2019-04-21T18:41:23.662Z,101937.50
2019-04-21T18:44:26.591Z,101928.06
2019-04-21T18:47:05.178Z,101928.56
2019-04-21T18:49:21.724Z,101931.50
2019-04-21T18:52:23.830Z,101933.38
2019-04-21T18:55:02.913Z,101934.37
2019-04-21T18:57:26.608Z,101935.47
2019-04-21T18:59:49.343Z,101937.74
2019-04-21T19:02:22.147Z,101933.25
2019-04-21T19:04:53.635Z,101929.66
2019-04-21T19:07:37.579Z,101930.58
2019-04-21T19:10:22.234Z,101936.14
2019-04-21T19:13:07.966Z,101936.28
2019-04-21T19:15:07.622Z,101940.19
2019-04-21T19:18:27.741Z,101939.11
2019-04-21T19:20:29.461Z,101941.55
2019-04-21T19:22:41.642Z,101903.20
2019-04-21T19:25:19.271Z,101941.34
2019-04-21T19:27:47.318Z,101945.19
2019-04-21T19:30:24.920Z,101940.59
2019-04-21T19:32:49.718Z,101941.58
2019-04-21T19:35:02.352Z,101945.22
2019-04-21T19:37:40.092Z,101938.84
2019-04-21T19:40:16.349Z,101939.27
2019-04-21T19:42:45.589Z,101939.38
2019-04-21T19:45:20.584Z,101931.41
2019-04-21T19:47:56.581Z,101935.19
2019-04-21T19:50:26.318Z,101932.03
2019-04-21T19:52:46.619Z,101924.91
2019-04-21T19:55:07.845Z,101921.45
2019-04-21T19:57:36.861Z,101921.52
2019-04-21T20:00:08.210Z,101915.55
2019-04-21T20:02:38.514Z,101915.13
2019-04-21T20:05:14.659Z,101912.34
2019-04-21T20:08:01.632Z,101910.23
2019-04-21T20:13:03.308Z,101918.31
2019-04-21T20:15:38.387Z,101923.14
2019-04-21T20:17:58.724Z,101921.20
2019-04-21T20:20:15.311Z,101922.05
2019-04-21T20:22:48.497Z,101919.50
2019-04-21T20:25:19.175Z,101918.76
2019-04-21T20:27:55.365Z,101917.78
2019-04-21T20:30:40.882Z,101921.00
2019-04-21T20:33:28.533Z,101923.49
2019-04-21T20:35:45.105Z,101923.51
2019-04-21T20:38:09.749Z,101923.30
2019-04-21T20:40:39.395Z,101919.00
2019-04-21T20:43:16.464Z,101912.98
2019-04-21T20:45:48.855Z,101912.74
2019-04-21T20:48:08.169Z,101910.17
2019-04-21T20:50:36.356Z,101917.44
2019-04-21T20:53:17.631Z,101910.45
2019-04-21T20:55:45.587Z,101914.73
2019-04-21T20:58:07.880Z,101915.47
2019-04-21T21:00:56.203Z,101909.45
2019-04-21T21:03:24.795Z,101906.38
2019-04-21T21:05:45.110Z,101905.66
2019-04-21T21:08:25.930Z,101903.30
2019-04-21T21:10:53.007Z,101904.44
2019-04-21T21:13:33.723Z,101903.93
2019-04-21T21:16:09.555Z,101904.69
2019-04-21T21:18:48.137Z,101908.97
2019-04-21T21:20:56.464Z,101904.05
2019-04-21T21:23:20.479Z,101905.91
2019-04-21T21:25:57.226Z,101902.83
2019-04-21T21:28:29.298Z,101904.81
2019-04-21T21:30:53.061Z,101902.83
2019-04-21T21:33:25.265Z,101903.20
2019-04-21T21:36:01.355Z,101907.89
2019-04-21T21:38:30.965Z,101904.29
2019-04-21T21:40:57.135Z,101900.36
2019-04-21T21:43:21.147Z,101895.83
2019-04-21T21:45:51.892Z,101896.08
2019-04-21T21:48:36.034Z,101897.42
2019-04-21T21:50:56.675Z,101894.71
2019-04-21T21:53:21.562Z,101892.34
2019-04-21T21:55:50.913Z,101892.48
2019-04-21T21:58:26.357Z,101887.53
2019-04-21T22:00:58.478Z,101885.58
2019-04-21T22:03:31.803Z,101881.13
2019-04-21T22:06:03.592Z,101880.40
2019-04-21T22:08:26.354Z,101885.41
2019-04-21T22:10:55.369Z,101883.92
2019-04-21T22:13:32.757Z,101879.02
2019-04-21T22:16:02.695Z,101884.80
2019-04-21T22:18:45.198Z,101882.10
2019-04-21T22:21:11.485Z,101879.39
2019-04-21T22:23:39.982Z,101879.97
2019-04-21T22:25:58.114Z,101875.56
2019-04-21T22:28:27.659Z,101879.74
2019-04-21T22:30:57.033Z,101871.13
2019-04-21T22:33:27.725Z,101869.02
2019-04-21T22:36:04.429Z,101869.53
2019-04-21T22:38:40.834Z,101841.09
2019-04-21T22:41:10.660Z,101873.09
2019-04-21T22:43:37.890Z,101869.03
2019-04-21T22:46:01.180Z,101871.52
2019-04-21T22:48:30.864Z,101869.52
2019-04-21T22:51:00.608Z,101866.81
2019-04-21T22:53:35.990Z,101873.45
2019-04-21T22:56:09.953Z,101866.10
2019-04-21T22:58:35.667Z,101874.08
2019-04-21T23:01:04.256Z,101865.94
2019-04-21T23:03:33.957Z,101867.16
2019-04-21T23:06:09.745Z,101872.94
2019-04-21T23:08:38.432Z,101868.27
2019-04-21T23:11:10.010Z,101867.78
2019-04-21T23:13:36.401Z,101867.63
2019-04-21T23:16:07.610Z,101865.88
2019-04-21T23:18:51.650Z,101859.86
2019-04-21T23:21:23.376Z,101861.53
2019-04-21T23:23:57.709Z,101870.50
2019-04-21T23:26:26.406Z,101869.85
2019-04-21T23:29:00.335Z,101866.54
2019-04-21T23:31:32.417Z,101869.33
2019-04-21T23:33:42.164Z,101869.03
2019-04-21T23:36:16.989Z,101863.72
2019-04-21T23:38:44.894Z,101861.36
2019-04-21T23:41:13.203Z,101855.70
2019-04-21T23:43:44.763Z,101856.31
2019-04-21T23:46:22.038Z,101856.55
2019-04-21T23:49:02.345Z,101853.95
2019-04-21T23:51:27.854Z,101849.76
2019-04-21T23:53:45.232Z,101853.42
2019-04-21T23:56:25.079Z,101849.91
2019-04-21T23:58:51.937Z,101846.67
